createdAt,value
2023-04-19T00:00:40.791Z,69.20
2023-04-19T00:03:09.364Z,69.40
2023-04-19T00:08:07.070Z,69.80
2023-04-19T00:10:35.995Z,70.00
2023-04-19T00:13:05.550Z,70.10
2023-04-19T00:15:35.160Z,70.20
2023-04-19T00:18:03.992Z,70.60
2023-04-19T00:20:32.583Z,70.70
2023-04-19T00:23:00.716Z,70.90
2023-04-19T00:25:31.080Z,71.00
2023-04-19T00:27:59.218Z,71.10
2023-04-19T00:32:57.363Z,71.40
2023-04-19T00:35:25.735Z,71.50
2023-04-19T00:37:53.917Z,71.70
2023-04-19T00:40:22.299Z,71.80
2023-04-19T00:42:50.435Z,72.00
2023-04-19T00:45:18.611Z,72.00
2023-04-19T00:47:48.314Z,72.00
2023-04-19T00:50:16.990Z,72.00
2023-04-19T00:52:45.884Z,72.10
2023-04-19T00:55:14.884Z,72.10
2023-04-19T00:57:43.506Z,72.30
2023-04-19T01:00:12.796Z,72.30
2023-04-19T01:02:41.221Z,72.40
2023-04-19T01:05:11.051Z,72.40
2023-04-19T01:07:39.313Z,72.40
2023-04-19T01:10:07.926Z,72.50
2023-04-19T01:12:36.179Z,72.50
2023-04-19T01:15:04.492Z,72.70
2023-04-19T01:17:33.977Z,72.70
2023-04-19T01:20:03.374Z,72.80
2023-04-19T01:22:33.179Z,72.90
2023-04-19T01:25:01.775Z,73.00
2023-04-19T01:27:29.890Z,73.10
2023-04-19T01:29:57.983Z,73.30
2023-04-19T01:32:26.965Z,73.30
2023-04-19T01:34:55.090Z,73.40
2023-04-19T01:37:23.236Z,73.40
2023-04-19T01:39:52.705Z,73.50
2023-04-19T01:42:20.777Z,73.50
2023-04-19T01:57:41.074Z,73.50
2023-04-19T02:00:10.386Z,74.20
2023-04-19T02:02:38.764Z,74.20
2023-04-19T02:17:56.443Z,74.50
2023-04-19T02:20:24.966Z,74.60
2023-04-19T02:22:53.172Z,74.60
2023-04-19T02:25:22.122Z,74.50
2023-04-19T02:27:50.191Z,74.60
2023-04-19T02:30:18.370Z,74.60
2023-04-19T02:48:03.993Z,74.40
2023-04-19T02:50:34.387Z,74.10
2023-04-19T02:53:02.509Z,74.00
2023-04-19T02:55:30.734Z,74.00
2023-04-19T02:57:58.868Z,74.10
2023-04-19T03:13:23.235Z,74.10
2023-04-19T03:15:51.523Z,73.90
2023-04-19T03:18:19.599Z,73.90
2023-04-19T03:20:47.738Z,73.80
2023-04-19T03:23:15.885Z,73.80
2023-04-19T03:25:44.020Z,73.70
2023-04-19T03:28:12.137Z,73.50
2023-04-19T03:30:42.381Z,73.60
2023-04-19T03:46:05.648Z,73.60
2023-04-19T03:48:35.710Z,73.40
2023-04-19T03:51:03.827Z,73.40
2023-04-19T03:53:31.916Z,73.30
2023-04-19T03:56:00.100Z,73.40
2023-04-19T03:58:28.243Z,73.40
2023-04-19T04:00:56.369Z,73.40
2023-04-19T04:03:26.151Z,73.40
2023-04-19T04:19:22.108Z,73.30
2023-04-19T04:21:50.407Z,73.00
2023-04-19T04:24:20.326Z,73.00
2023-04-19T04:26:49.917Z,72.90
2023-04-19T04:29:18.134Z,72.90
2023-04-19T04:31:46.274Z,72.80
2023-04-19T04:34:14.630Z,72.80
2023-04-19T04:36:44.351Z,72.80
2023-04-19T04:39:13.231Z,72.90
2023-04-19T04:41:42.532Z,72.90
2023-04-19T04:44:13.009Z,73.00
2023-04-19T04:46:41.358Z,73.00
2023-04-19T04:49:09.529Z,73.10
2023-04-19T04:51:37.630Z,73.20
2023-04-19T04:54:07.228Z,73.20
2023-04-19T05:10:05.499Z,73.20
2023-04-19T05:12:33.627Z,73.30
2023-04-19T05:28:46.087Z,73.10
2023-04-19T05:31:14.676Z,73.30
2023-04-19T05:33:42.899Z,73.30
2023-04-19T05:36:11.369Z,73.20
2023-04-19T05:38:39.510Z,73.10
2023-04-19T05:41:07.945Z,73.00
2023-04-19T05:43:36.325Z,72.70
2023-04-19T05:46:05.887Z,72.50
2023-04-19T06:01:20.110Z,72.30
2023-04-19T06:03:53.349Z,71.40
2023-04-19T06:06:23.636Z,71.20
2023-04-19T06:08:54.445Z,71.10
2023-04-19T06:11:29.247Z,71.10
2023-04-19T06:14:07.016Z,71.00
2023-04-19T06:45:37.389Z,70.50
2023-04-19T06:48:06.251Z,69.90
2023-04-19T06:50:34.354Z,69.80
